createdAt,value
2022-08-30T00:01:33.697Z,69.78
2022-08-30T00:04:02.990Z,70.03
2022-08-30T00:06:31.851Z,70.73
2022-08-30T00:08:59.966Z,70.95
2022-08-30T00:11:28.566Z,71.36
2022-08-30T00:13:57.991Z,71.56
2022-08-30T00:16:27.062Z,71.88
2022-08-30T00:18:56.175Z,72.03
2022-08-30T00:21:23.802Z,71.89
2022-08-30T00:23:51.169Z,72.09
2022-08-30T00:26:18.404Z,71.77
2022-08-30T00:28:45.600Z,72.01
2022-08-30T00:31:15.433Z,72.41
2022-08-30T00:33:46.453Z,72.20
2022-08-30T00:36:13.745Z,71.84
2022-08-30T00:38:40.843Z,72.39
2022-08-30T00:41:08.214Z,72.53
2022-08-30T00:43:37.028Z,73.03
2022-08-30T00:46:08.491Z,72.82
2022-08-30T00:48:45.659Z,73.35
2022-08-30T00:51:15.644Z,72.93
2022-08-30T00:53:51.511Z,73.04
2022-08-30T00:56:19.601Z,73.04
2022-08-30T00:58:53.854Z,73.50
2022-08-30T01:01:21.957Z,73.97
2022-08-30T01:03:49.284Z,73.83
2022-08-30T01:06:17.730Z,73.96
2022-08-30T01:08:46.815Z,74.18
2022-08-30T01:11:17.700Z,74.57
2022-08-30T01:13:48.595Z,75.01
2022-08-30T01:16:27.337Z,75.12
2022-08-30T01:18:58.257Z,74.96
2022-08-30T01:21:39.646Z,75.13
2022-08-30T01:24:07.610Z,75.50
2022-08-30T01:26:36.169Z,75.88
2022-08-30T01:29:11.775Z,76.24
2022-08-30T01:31:39.247Z,75.45
2022-08-30T01:34:08.089Z,75.48
2022-08-30T01:36:44.669Z,75.81
2022-08-30T01:39:15.852Z,75.58
2022-08-30T01:41:47.625Z,75.79
2022-08-30T01:44:16.701Z,76.22
2022-08-30T01:46:47.332Z,76.02
2022-08-30T01:49:17.818Z,76.62
2022-08-30T01:52:00.619Z,76.20
2022-08-30T01:54:33.364Z,76.33
2022-08-30T01:57:08.285Z,76.76
2022-08-30T01:59:36.175Z,77.17
2022-08-30T02:02:05.746Z,77.31
2022-08-30T02:04:34.285Z,77.36
2022-08-30T02:07:01.987Z,77.25
2022-08-30T02:09:29.566Z,77.28
2022-08-30T02:11:56.795Z,77.51
2022-08-30T02:14:24.068Z,77.69
2022-08-30T02:16:51.238Z,77.62
2022-08-30T02:19:18.742Z,77.78
2022-08-30T02:21:45.771Z,78.05
2022-08-30T02:24:13.042Z,78.42
2022-08-30T02:26:40.874Z,78.63
2022-08-30T02:29:10.129Z,78.09
2022-08-30T02:31:38.358Z,77.88
2022-08-30T02:34:05.615Z,77.62
2022-08-30T02:36:32.739Z,78.14
2022-08-30T02:39:00.782Z,78.39
2022-08-30T02:41:27.843Z,78.72
2022-08-30T02:43:58.572Z,78.54
2022-08-30T02:46:26.157Z,79.08
2022-08-30T02:48:53.528Z,78.84
2022-08-30T02:51:20.723Z,79.08
2022-08-30T02:53:49.311Z,79.46
2022-08-30T02:56:18.349Z,79.99
2022-08-30T02:58:46.683Z,80.50
2022-08-30T03:01:17.997Z,80.48
2022-08-30T03:03:55.373Z,80.28
2022-08-30T03:06:22.776Z,80.69
2022-08-30T03:08:50.350Z,80.48
2022-08-30T03:11:17.442Z,80.86
2022-08-30T03:13:44.649Z,81.40
2022-08-30T03:16:12.150Z,81.47
2022-08-30T03:18:39.878Z,81.73
2022-08-30T03:21:12.799Z,82.10
2022-08-30T03:23:40.919Z,82.17
2022-08-30T03:26:10.821Z,82.90
2022-08-30T03:28:42.894Z,83.31
2022-08-30T03:31:10.476Z,83.40
2022-08-30T03:33:40.563Z,84.19
2022-08-30T03:36:09.296Z,84.12
2022-08-30T03:38:36.444Z,84.12
2022-08-30T03:41:06.026Z,84.23
2022-08-30T03:43:35.374Z,83.30
2022-08-30T03:46:03.038Z,83.71
2022-08-30T03:48:32.434Z,83.41
2022-08-30T03:51:00.779Z,83.48
2022-08-30T03:53:28.404Z,83.32
2022-08-30T03:55:55.754Z,83.64
2022-08-30T03:58:24.830Z,84.03
2022-08-30T04:00:52.074Z,83.91
2022-08-30T04:03:21.029Z,83.76
2022-08-30T04:05:48.046Z,83.94
2022-08-30T04:08:15.668Z,83.79
2022-08-30T04:10:43.061Z,84.16
2022-08-30T04:13:12.071Z,84.41
2022-08-30T04:15:43.063Z,84.50
2022-08-30T04:18:10.579Z,84.88
2022-08-30T04:20:38.265Z,84.81
2022-08-30T04:23:07.276Z,84.27
2022-08-30T04:25:36.037Z,84.00
2022-08-30T04:28:04.388Z,83.84
2022-08-30T04:30:31.589Z,83.65
2022-08-30T04:32:59.101Z,83.11
2022-08-30T04:35:27.370Z,83.17
2022-08-30T04:37:55.827Z,83.26
2022-08-30T04:40:24.650Z,83.38
2022-08-30T04:42:57.251Z,83.03
2022-08-30T04:45:25.940Z,83.00
2022-08-30T04:47:53.232Z,82.52
2022-08-30T04:50:23.609Z,82.71
2022-08-30T04:52:51.208Z,82.79
2022-08-30T04:55:20.409Z,82.61
2022-08-30T04:57:48.368Z,80.75
2022-08-30T05:02:44.102Z,78.51
2022-08-30T05:05:30.489Z,78.10
2022-08-30T05:07:58.104Z,77.89
2022-08-30T05:10:25.997Z,78.25
2022-08-30T05:12:53.739Z,79.05
2022-08-30T05:15:22.449Z,78.32
2022-08-30T05:17:49.719Z,78.67
2022-08-30T05:20:17.447Z,78.14
2022-08-30T05:22:54.281Z,77.43
2022-08-30T05:25:27.667Z,76.91
2022-08-30T05:27:55.485Z,77.49
2022-08-30T05:30:24.252Z,77.75
2022-08-30T05:32:52.132Z,78.35
2022-08-30T05:35:25.442Z,76.88
2022-08-30T05:37:54.290Z,75.72
2022-08-30T05:40:21.674Z,75.31
2022-08-30T05:42:48.738Z,74.92
2022-08-30T05:45:16.490Z,75.53
2022-08-30T05:47:43.806Z,75.79
2022-08-30T05:50:11.219Z,74.69
2022-08-30T05:52:40.529Z,73.93
2022-08-30T05:55:09.351Z,73.45
2022-08-30T05:57:38.800Z,72.97
2022-08-30T06:00:14.401Z,73.59
2022-08-30T06:02:42.412Z,73.08
2022-08-30T06:05:11.105Z,72.28
2022-08-30T06:07:42.557Z,71.86
2022-08-30T06:10:09.942Z,71.44
2022-08-30T06:12:37.640Z,71.35
2022-08-30T06:15:05.514Z,70.77
2022-08-30T06:17:32.872Z,70.40
2022-08-30T06:20:00.031Z,70.38
2022-08-30T06:22:27.583Z,70.37
2022-08-30T06:24:57.550Z,70.32
2022-08-30T06:27:25.380Z,70.37
2022-08-30T06:29:53.026Z,69.77
2022-08-30T06:32:20.303Z,69.11
2022-08-30T06:34:48.429Z,68.59
2022-08-30T06:37:29.190Z,68.31
2022-08-30T06:40:07.924Z,68.16
2022-08-30T06:42:35.124Z,68.32
2022-08-30T06:45:02.766Z,67.32
2022-08-30T06:47:38.351Z,66.95
2022-08-30T06:50:05.922Z,66.62
2022-08-30T06:52:33.083Z,66.04
2022-08-30T06:55:02.043Z,66.68
2022-08-30T06:57:30.497Z,65.89
2022-08-30T06:59:58.455Z,64.88
2022-08-30T07:02:26.671Z,65.42
2022-08-30T07:04:53.805Z,64.67
2022-08-30T07:07:20.918Z,64.81
2022-08-30T07:09:48.249Z,63.65
2022-08-30T07:12:16.023Z,63.30
2022-08-30T07:14:43.252Z,62.89
2022-08-30T07:17:33.879Z,62.79
2022-08-30T07:20:04.272Z,63.08
2022-08-30T07:22:33.677Z,62.86
2022-08-30T07:25:01.763Z,61.75
2022-08-30T07:27:31.713Z,61.80
2022-08-30T07:29:59.432Z,61.95
2022-08-30T07:32:28.103Z,61.57
2022-08-30T07:35:02.914Z,61.47
2022-08-30T07:37:32.739Z,61.86
2022-08-30T07:40:00.557Z,61.41
2022-08-30T07:42:27.759Z,61.04
2022-08-30T07:44:56.994Z,60.36
2022-08-30T07:47:24.172Z,60.16
2022-08-30T07:49:51.466Z,60.80
2022-08-30T07:52:18.522Z,60.21
2022-08-30T07:54:45.701Z,60.11
2022-08-30T07:57:12.853Z,60.17
2022-08-30T07:59:43.349Z,59.54
2022-08-30T08:02:10.610Z,59.60
2022-08-30T08:04:37.902Z,58.51
2022-08-30T08:07:05.407Z,58.21
2022-08-30T08:09:34.156Z,57.87
2022-08-30T08:12:01.310Z,58.52
2022-08-30T08:14:28.516Z,58.21
2022-08-30T08:16:55.714Z,58.18
2022-08-30T08:19:22.907Z,57.98
2022-08-30T08:21:59.348Z,58.17
2022-08-30T08:24:37.695Z,57.83
2022-08-30T08:27:04.795Z,57.90
2022-08-30T08:29:32.162Z,56.99
2022-08-30T08:32:00.360Z,57.80
2022-08-30T08:34:27.519Z,56.71
2022-08-30T08:36:55.276Z,57.16
2022-08-30T08:39:22.635Z,56.98
2022-08-30T08:42:05.282Z,56.55
2022-08-30T08:44:55.474Z,55.43
2022-08-30T08:47:32.039Z,54.88
2022-08-30T08:50:03.368Z,55.14
2022-08-30T08:53:05.391Z,54.40
2022-08-30T08:55:33.255Z,54.54
2022-08-30T08:58:01.400Z,54.38
2022-08-30T09:00:30.164Z,53.83
2022-08-30T09:03:03.284Z,54.77
2022-08-30T09:05:37.651Z,54.68
2022-08-30T09:08:11.800Z,54.43
2022-08-30T09:10:50.383Z,55.03
2022-08-30T09:13:21.056Z,54.32
2022-08-30T09:15:54.953Z,54.04
2022-08-30T09:18:48.978Z,53.33
2022-08-30T09:21:25.898Z,53.47
2022-08-30T09:24:04.741Z,53.03
2022-08-30T09:26:35.841Z,53.26
2022-08-30T09:29:05.164Z,54.42
2022-08-30T09:31:46.432Z,54.17
2022-08-30T09:34:19.287Z,52.97
2022-08-30T09:36:52.190Z,52.70
2022-08-30T09:39:31.526Z,51.50
2022-08-30T09:42:21.190Z,51.41
2022-08-30T09:44:48.689Z,51.17
2022-08-30T09:47:31.592Z,51.50
2022-08-30T09:50:07.331Z,50.73
2022-08-30T09:52:55.102Z,50.91
2022-08-30T09:55:44.171Z,50.30
2022-08-30T09:58:19.379Z,50.05
2022-08-30T10:00:57.182Z,50.11
2022-08-30T10:03:43.945Z,49.05
2022-08-30T10:06:50.137Z,49.06
2022-08-30T10:09:33.431Z,48.45
2022-08-30T10:12:13.421Z,47.99
2022-08-30T10:14:49.615Z,47.86
2022-08-30T10:17:28.445Z,46.30
2022-08-30T10:20:26.318Z,45.02
2022-08-30T10:23:02.477Z,45.51
2022-08-30T10:26:10.255Z,46.08
2022-08-30T10:28:50.240Z,47.13
2022-08-30T10:31:42.200Z,46.16
2022-08-30T10:34:17.118Z,46.03
2022-08-30T10:36:53.081Z,45.06
2022-08-30T10:39:31.423Z,43.98
2022-08-30T10:42:17.814Z,43.39
2022-08-30T10:44:51.071Z,42.63
2022-08-30T10:47:30.325Z,42.89
2022-08-30T10:50:15.213Z,42.72
2022-08-30T10:52:50.517Z,43.05
2022-08-30T10:55:49.875Z,43.55
2022-08-30T10:58:18.658Z,42.54
2022-08-30T11:01:12.406Z,42.24
2022-08-30T11:04:29.824Z,42.17
2022-08-30T11:07:34.881Z,41.41
2022-08-30T11:10:15.032Z,41.28
2022-08-30T11:13:05.472Z,40.34
2022-08-30T11:15:38.059Z,39.89
2022-08-30T11:18:13.646Z,40.06
2022-08-30T11:20:46.816Z,39.83
2022-08-30T11:23:26.163Z,40.09
2022-08-30T11:25:59.671Z,39.92
2022-08-30T11:28:50.784Z,40.57
2022-08-30T11:31:21.228Z,40.00
2022-08-30T11:33:57.912Z,40.52
2022-08-30T11:36:28.973Z,39.52
2022-08-30T11:39:10.615Z,39.21
2022-08-30T11:41:47.640Z,39.63
2022-08-30T11:44:15.286Z,39.24
2022-08-30T11:46:43.371Z,38.67
2022-08-30T11:49:15.692Z,37.54
2022-08-30T11:52:08.216Z,38.43
2022-08-30T11:55:00.575Z,38.77
2022-08-30T11:57:45.887Z,38.28
2022-08-30T12:00:40.851Z,38.21
2022-08-30T12:03:33.606Z,38.34
2022-08-30T12:06:05.595Z,37.59
2022-08-30T12:08:36.178Z,37.84
2022-08-30T12:11:09.260Z,37.61
2022-08-30T12:13:37.702Z,37.32
2022-08-30T12:16:09.387Z,37.52
2022-08-30T12:18:55.565Z,38.47
2022-08-30T12:21:33.434Z,37.94
2022-08-30T12:24:11.908Z,37.49
2022-08-30T12:26:45.013Z,37.77
2022-08-30T12:29:18.160Z,37.13
2022-08-30T12:31:51.393Z,37.75
2022-08-30T12:34:36.153Z,37.55
2022-08-30T12:37:19.339Z,38.20
2022-08-30T12:39:53.855Z,36.72
2022-08-30T12:42:22.821Z,36.25
2022-08-30T12:44:52.660Z,36.62
2022-08-30T12:47:27.046Z,35.85
2022-08-30T12:49:55.904Z,36.17
2022-08-30T12:52:36.124Z,35.63
2022-08-30T12:55:21.566Z,35.80
2022-08-30T12:58:01.969Z,35.74
2022-08-30T13:00:34.072Z,35.38
2022-08-30T13:03:30.763Z,35.29
2022-08-30T13:05:58.641Z,35.53
2022-08-30T13:08:37.091Z,36.23
2022-08-30T13:11:11.524Z,36.00
2022-08-30T13:13:52.149Z,35.88
2022-08-30T13:16:23.334Z,35.86
2022-08-30T13:19:14.598Z,36.46
2022-08-30T13:21:57.140Z,36.22
2022-08-30T13:24:25.802Z,36.25
2022-08-30T13:26:55.843Z,36.56
2022-08-30T13:29:27.074Z,35.92
2022-08-30T13:31:55.284Z,35.42
2022-08-30T13:34:24.276Z,36.14
2022-08-30T13:36:58.394Z,36.91
2022-08-30T13:39:26.725Z,36.58
2022-08-30T13:41:56.377Z,35.91
2022-08-30T13:44:43.004Z,35.76
2022-08-30T13:50:00.018Z,35.10
2022-08-30T13:52:28.214Z,36.16
2022-08-30T13:54:57.117Z,34.73
2022-08-30T14:00:19.959Z,33.29
2022-08-30T14:02:54.955Z,33.46
2022-08-30T14:05:50.116Z,33.57
2022-08-30T14:11:15.894Z,33.58
2022-08-30T14:16:31.600Z,34.52
2022-08-30T14:19:00.464Z,33.88
2022-08-30T14:21:28.636Z,33.68
2022-08-30T14:23:57.840Z,33.21
2022-08-30T14:26:51.980Z,33.53
2022-08-30T14:29:22.657Z,33.98
2022-08-30T14:31:52.034Z,34.36
2022-08-30T14:34:20.035Z,34.20
2022-08-30T14:36:47.692Z,34.01
2022-08-30T14:39:19.011Z,33.53
2022-08-30T14:41:50.308Z,33.72
2022-08-30T14:44:18.727Z,33.93
2022-08-30T14:46:46.660Z,34.43
2022-08-30T14:49:15.763Z,34.58
2022-08-30T14:51:46.474Z,34.64
2022-08-30T14:54:13.899Z,34.84
2022-08-30T14:56:41.975Z,34.69
2022-08-30T14:59:10.421Z,34.30
2022-08-30T15:01:41.947Z,34.50
2022-08-30T15:04:10.701Z,34.45
2022-08-30T15:06:39.413Z,34.41
2022-08-30T15:09:09.924Z,34.89
2022-08-30T15:11:38.222Z,34.73
2022-08-30T15:14:06.764Z,34.46
2022-08-30T15:16:36.612Z,34.31
2022-08-30T15:19:06.309Z,34.59
2022-08-30T15:21:42.173Z,34.37
2022-08-30T15:24:13.086Z,34.90
2022-08-30T15:26:43.729Z,34.82
2022-08-30T15:29:13.910Z,34.66
2022-08-30T15:31:42.228Z,34.79
2022-08-30T15:34:13.089Z,34.43
2022-08-30T15:36:42.389Z,34.86
2022-08-30T15:39:11.346Z,35.13
2022-08-30T15:41:39.932Z,35.60
2022-08-30T15:44:12.310Z,34.81
2022-08-30T15:46:43.894Z,35.02
2022-08-30T15:49:16.542Z,35.58
2022-08-30T15:51:45.874Z,36.14
2022-08-30T15:54:17.293Z,35.54
2022-08-30T15:56:45.437Z,35.19
2022-08-30T15:59:15.538Z,35.63
2022-08-30T16:01:44.301Z,36.24
2022-08-30T16:04:12.256Z,35.72
2022-08-30T16:06:39.693Z,36.21
2022-08-30T16:09:10.463Z,36.51
2022-08-30T16:11:38.220Z,36.54
2022-08-30T16:14:06.852Z,36.51
2022-08-30T16:16:37.901Z,36.68
2022-08-30T16:19:07.457Z,36.57
2022-08-30T16:21:40.110Z,36.86
2022-08-30T16:24:10.718Z,37.04
2022-08-30T16:26:43.189Z,37.24
2022-08-30T16:29:12.529Z,37.26
2022-08-30T16:31:40.933Z,37.60
2022-08-30T16:34:08.106Z,38.08
2022-08-30T16:36:36.101Z,38.25
2022-08-30T16:39:08.586Z,38.65
2022-08-30T16:41:37.308Z,38.77
2022-08-30T16:44:06.377Z,39.00
2022-08-30T16:46:34.863Z,39.20
2022-08-30T16:49:02.537Z,39.54
2022-08-30T16:51:32.756Z,40.68
2022-08-30T16:54:04.570Z,41.39
2022-08-30T16:56:33.252Z,42.03
2022-08-30T16:59:03.011Z,42.23
2022-08-30T17:01:35.001Z,42.55
2022-08-30T17:04:03.283Z,42.64
2022-08-30T17:06:31.158Z,42.60
2022-08-30T17:08:59.416Z,42.85
2022-08-30T17:11:26.918Z,43.26
2022-08-30T17:13:54.562Z,43.46
2022-08-30T17:16:28.033Z,43.47
2022-08-30T17:19:01.140Z,43.86
2022-08-30T17:21:29.511Z,44.19
2022-08-30T17:24:02.296Z,44.51
2022-08-30T17:26:32.462Z,44.82
2022-08-30T17:29:00.181Z,44.96
2022-08-30T17:31:30.602Z,45.26
2022-08-30T17:34:04.041Z,45.57
2022-08-30T17:36:35.430Z,45.67
2022-08-30T17:39:10.588Z,45.90
2022-08-30T17:41:45.231Z,46.38
2022-08-30T17:44:20.105Z,45.99
2022-08-30T17:46:47.567Z,46.30
2022-08-30T17:49:15.169Z,46.68
2022-08-30T17:51:49.457Z,47.47
2022-08-30T17:54:21.041Z,48.17
2022-08-30T17:56:52.086Z,49.01
2022-08-30T17:59:20.299Z,49.72
2022-08-30T18:01:54.664Z,50.57
2022-08-30T18:04:24.849Z,51.02
2022-08-30T18:06:53.040Z,51.43
2022-08-30T18:09:21.064Z,52.40
2022-08-30T18:11:57.717Z,53.08
2022-08-30T18:14:25.707Z,53.88
2022-08-30T18:16:54.542Z,54.11
2022-08-30T18:19:25.939Z,54.70
2022-08-30T18:21:55.367Z,54.95
2022-08-30T18:24:23.382Z,55.51
2022-08-30T18:26:50.800Z,55.67
2022-08-30T18:29:25.972Z,55.80
2022-08-30T18:32:01.813Z,56.13
2022-08-30T18:34:30.515Z,56.27
2022-08-30T18:36:57.949Z,56.57
2022-08-30T18:39:25.473Z,56.58
2022-08-30T18:41:54.836Z,56.21
2022-08-30T18:44:28.351Z,55.45
2022-08-30T18:46:57.989Z,54.77
2022-08-30T18:49:29.463Z,55.16
2022-08-30T18:52:01.131Z,55.84
2022-08-30T18:54:29.056Z,55.77
2022-08-30T18:56:56.103Z,56.03
2022-08-30T18:59:23.329Z,56.14
2022-08-30T19:02:05.199Z,56.05
2022-08-30T19:04:35.754Z,56.44
2022-08-30T19:07:07.735Z,56.11
2022-08-30T19:09:35.658Z,56.25
2022-08-30T19:12:09.362Z,56.21
2022-08-30T19:14:37.503Z,56.50
2022-08-30T19:17:07.255Z,56.43
2022-08-30T19:19:37.401Z,56.49
2022-08-30T19:22:15.950Z,56.65
2022-08-30T19:24:43.476Z,56.84
2022-08-30T19:27:11.104Z,57.24
2022-08-30T19:29:40.050Z,57.51
2022-08-30T19:32:08.491Z,57.62
2022-08-30T19:34:37.607Z,57.97
2022-08-30T19:37:14.648Z,58.23
2022-08-30T19:39:46.811Z,58.68
2022-08-30T19:42:14.118Z,58.89
2022-08-30T19:44:43.718Z,59.18
2022-08-30T19:47:18.873Z,59.27
2022-08-30T19:49:46.370Z,59.46
2022-08-30T19:52:13.468Z,59.51
2022-08-30T19:54:41.255Z,59.73
2022-08-30T19:57:09.975Z,59.61
2022-08-30T19:59:38.318Z,60.09
2022-08-30T20:02:06.681Z,59.99
2022-08-30T20:04:40.906Z,59.59
2022-08-30T20:07:10.445Z,59.56
2022-08-30T20:09:37.764Z,60.00
2022-08-30T20:12:05.239Z,60.16
2022-08-30T20:14:32.917Z,60.53
2022-08-30T20:19:47.890Z,60.61
2022-08-30T20:22:15.337Z,60.86
2022-08-30T20:24:43.896Z,60.77
2022-08-30T20:27:11.611Z,61.04
2022-08-30T20:29:40.435Z,61.39
2022-08-30T20:32:07.613Z,61.31
2022-08-30T20:34:34.998Z,61.64
2022-08-30T20:37:08.192Z,62.26
2022-08-30T20:39:36.156Z,62.28
2022-08-30T20:42:05.002Z,62.28
2022-08-30T20:44:32.234Z,62.94
2022-08-30T20:46:59.590Z,62.87
2022-08-30T20:49:27.829Z,62.64
2022-08-30T20:51:55.612Z,63.08
2022-08-30T20:54:23.796Z,63.28
2022-08-30T20:56:51.603Z,63.68
2022-08-30T20:59:18.783Z,63.23
2022-08-30T21:01:48.471Z,63.42
2022-08-30T21:04:17.156Z,63.78
2022-08-30T21:06:44.298Z,63.45
2022-08-30T21:09:11.788Z,63.78
2022-08-30T21:11:38.941Z,64.43
2022-08-30T21:14:12.289Z,64.56
2022-08-30T21:16:39.542Z,65.34
2022-08-30T21:19:06.997Z,65.45
2022-08-30T21:21:34.233Z,66.00
2022-08-30T21:24:06.779Z,65.70
2022-08-30T21:26:34.078Z,65.56
2022-08-30T21:29:01.295Z,65.69
2022-08-30T21:31:29.369Z,66.12
2022-08-30T21:33:56.966Z,66.11
2022-08-30T21:36:45.298Z,66.59
2022-08-30T21:39:28.033Z,67.24
2022-08-30T21:41:57.130Z,67.34
2022-08-30T21:44:26.789Z,67.80
2022-08-30T21:46:55.042Z,67.70
2022-08-30T21:49:23.691Z,68.03
2022-08-30T21:51:53.698Z,68.08
2022-08-30T21:54:22.147Z,68.55
2022-08-30T21:56:51.186Z,68.69
2022-08-30T21:59:19.634Z,68.59
2022-08-30T22:01:48.345Z,68.85
2022-08-30T22:04:16.213Z,68.71
2022-08-30T22:06:50.216Z,68.88
2022-08-30T22:09:21.578Z,68.96
2022-08-30T22:11:50.023Z,69.21
2022-08-30T22:14:18.218Z,69.21
2022-08-30T22:16:46.306Z,69.57
2022-08-30T22:19:13.857Z,69.83
2022-08-30T22:21:42.784Z,69.96
2022-08-30T22:24:10.801Z,70.08
2022-08-30T22:26:38.197Z,70.00
2022-08-30T22:29:06.810Z,70.33
2022-08-30T22:31:34.446Z,70.41
2022-08-30T22:34:01.680Z,70.84
2022-08-30T22:36:32.829Z,71.05
2022-08-30T22:39:01.700Z,70.92
2022-08-30T22:41:31.144Z,71.19
2022-08-30T22:43:59.162Z,71.29
2022-08-30T22:46:33.850Z,71.42
2022-08-30T22:49:06.627Z,71.59
2022-08-30T22:51:35.027Z,71.79
2022-08-30T22:54:03.681Z,72.33
2022-08-30T22:56:33.021Z,72.65
2022-08-30T22:59:00.304Z,72.39
2022-08-30T23:01:30.390Z,72.97
2022-08-30T23:03:58.891Z,72.83
2022-08-30T23:06:26.163Z,72.78
2022-08-30T23:08:53.797Z,72.88
2022-08-30T23:11:21.306Z,72.85
2022-08-30T23:13:48.611Z,73.11
2022-08-30T23:16:17.571Z,73.45
2022-08-30T23:18:45.631Z,73.44
2022-08-30T23:21:21.312Z,73.63
2022-08-30T23:24:08.497Z,74.08
2022-08-30T23:26:54.714Z,74.44
2022-08-30T23:29:40.353Z,74.90
2022-08-30T23:32:26.569Z,74.36
2022-08-30T23:35:12.420Z,74.63
2022-08-30T23:37:59.209Z,74.69
2022-08-30T23:40:47.301Z,75.53
2022-08-30T23:43:33.255Z,75.41
2022-08-30T23:46:19.737Z,75.87
2022-08-30T23:49:06.402Z,76.24
2022-08-30T23:51:53.774Z,76.48
2022-08-30T23:54:39.446Z,76.70
2022-08-30T23:57:25.839Z,76.84
